Time;durP1;ratioP1;P1;durP2;ratioP2;P2;SDS_P1;SDS_P2;PMS_P1;PMS_P2;Temp;Humidity;BMP_temperature;BMP_pressure;BME280_temperature;BME280_humidity;BME280_pressure;Samples;Min_cycle;Max_cycle;Signal;HPM_P1;HPM_P2
2023/07/09 00:02:14;;;;;;;8.60;7.70;;;;;;;20.16;69.39;101143.66;5040291;28;20665;-75
2023/07/09 00:04:41;;;;;;;8.83;6.90;;;;;;;20.14;70.44;101147.50;5035517;28;20224;-74
2023/07/09 00:07:18;;;;;;;7.17;6.47;;;;;;;20.15;70.96;101152.75;5045131;28;20208;-74
2023/07/09 00:09:44;;;;;;;6.93;6.33;;;;;;;20.17;71.24;101152.59;5044046;28;20213;-73
2023/07/09 00:12:14;;;;;;;7.43;6.70;;;;;;;20.20;71.22;101155.03;5044431;28;20205;-73
2023/07/09 00:14:41;;;;;;;8.10;7.27;;;;;;;20.22;70.66;101151.19;5029770;28;20213;-73
2023/07/09 00:17:11;;;;;;;7.80;7.00;;;;;;;20.21;70.77;101149.47;5042038;28;20681;-75
2023/07/09 00:19:39;;;;;;;7.27;6.63;;;;;;;20.22;70.34;101150.31;5038416;28;20215;-75
2023/07/09 00:22:16;;;;;;;7.60;6.50;;;;;;;20.20;69.80;101155.03;5041044;28;20211;-74
2023/07/09 00:24:45;;;;;;;8.70;6.00;;;;;;;20.11;69.24;101160.31;5040724;28;20206;-75
2023/07/09 00:27:12;;;;;;;8.13;6.30;;;;;;;20.02;69.13;101157.63;5045561;28;20209;-74
2023/07/09 00:29:39;;;;;;;7.10;6.40;;;;;;;19.97;69.67;101163.47;5040201;28;20210;-75
2023/07/09 00:32:11;;;;;;;8.33;6.27;;;;;;;19.92;70.16;101167.59;5045004;28;20783;-74
2023/07/09 00:34:38;;;;;;;7.87;7.07;;;;;;;19.89;71.21;101163.31;5041982;28;20210;-75
2023/07/09 00:37:12;;;;;;;9.63;7.13;;;;;;;19.90;71.85;101166.88;5036086;28;20274;-75
2023/07/09 00:39:40;;;;;;;7.47;6.77;;;;;;;19.89;72.18;101163.31;5044523;28;20224;-74
2023/07/09 00:42:14;;;;;;;7.57;6.37;;;;;;;19.90;72.32;101156.94;5045649;28;20214;-75
2023/07/09 00:44:43;;;;;;;7.97;7.17;;;;;;;19.92;72.51;101164.91;5044632;28;20307;-75
2023/07/09 00:47:19;;;;;;;7.70;6.90;;;;;;;19.91;72.49;101161.34;5044191;28;20262;-75
2023/07/09 00:49:47;;;;;;;7.40;6.13;;;;;;;19.92;72.72;101148.66;5044605;28;20213;-74
2023/07/09 00:52:24;;;;;;;8.70;7.77;;;;;;;19.93;72.74;101163.91;5048526;28;20238;-74
2023/07/09 00:54:53;;;;;;;7.40;6.57;;;;;;;19.89;72.31;101155.22;5040772;28;20213;-74
2023/07/09 00:57:24;;;;;;;7.23;6.43;;;;;;;19.83;71.63;101158.53;5040614;28;20213;-74
2023/07/09 00:59:55;;;;;;;13.77;6.97;;;;;;;19.73;70.83;101154.97;5045724;28;20780;-75
2023/07/09 01:02:23;;;;;;;11.57;6.50;;;;;;;19.59;70.97;101158.09;5041054;28;20740;-75
2023/07/09 01:04:51;;;;;;;7.37;6.60;;;;;;;19.45;71.33;101151.25;5041565;28;20602;-75
2023/07/09 01:07:19;;;;;;;7.57;6.33;;;;;;;19.34;71.45;101151.41;5041611;28;20213;-75
2023/07/09 01:09:46;;;;;;;8.13;6.50;;;;;;;19.23;72.14;101151.53;5046542;28;20237;-75
2023/07/09 01:12:15;;;;;;;8.17;6.23;;;;;;;19.16;73.32;101148.56;5040167;28;20310;-75
2023/07/09 01:14:48;;;;;;;7.33;6.63;;;;;;;19.14;74.70;101146.97;5044326;28;20299;-74
2023/07/09 01:17:15;;;;;;;7.73;6.93;;;;;;;19.12;75.25;101147.13;5045373;28;20216;-74
2023/07/09 01:19:44;;;;;;;7.83;7.03;;;;;;;19.11;75.69;101144.56;5045540;28;20243;-75
2023/07/09 01:22:14;;;;;;;7.47;6.73;;;;;;;19.08;76.07;101142.97;5042664;28;20440;-74
2023/07/09 01:24:53;;;;;;;8.53;6.47;;;;;;;19.05;76.44;101143.25;5042421;28;20599;-74
2023/07/09 01:27:22;;;;;;;8.20;7.43;;;;;;;19.05;76.71;101146.81;5045736;28;20202;-75
2023/07/09 01:29:49;;;;;;;8.93;7.17;;;;;;;19.05;76.89;101137.84;5046653;28;20580;-75
2023/07/09 01:32:18;;;;;;;11.10;5.77;;;;;;;19.05;76.46;101143.25;5040498;28;20930;-75
2023/07/09 01:34:47;;;;;;;14.23;7.00;;;;;;;19.02;75.79;101146.22;5050071;28;20219;-73
2023/07/09 01:37:16;;;;;;;9.40;6.13;;;;;;;18.96;75.20;101144.13;5046991;28;20685;-75
2023/07/09 01:39:42;;;;;;;9.80;6.20;;;;;;;18.95;75.11;101145.97;5047374;28;20297;-75
2023/07/09 01:42:10;;;;;;;10.50;6.27;;;;;;;18.93;74.99;101141.69;5042293;28;20628;-75
2023/07/09 01:44:38;;;;;;;9.23;6.30;;;;;;;18.92;74.46;101139.97;5042996;28;20211;-75
2023/07/09 01:47:05;;;;;;;8.67;5.47;;;;;;;18.85;73.66;101145.06;5045496;28;20220;-75
2023/07/09 01:49:32;;;;;;;10.50;6.17;;;;;;;18.75;72.89;101148.75;5044871;28;20256;-75
2023/07/09 01:52:01;;;;;;;11.13;6.37;;;;;;;18.64;73.02;101149.69;5048358;28;20318;-75
2023/07/09 01:54:31;;;;;;;10.57;6.03;;;;;;;18.59;74.08;101142.03;5043384;28;20381;-75
2023/07/09 01:57:14;;;;;;;8.77;6.13;;;;;;;18.60;74.66;101148.28;5047939;28;20244;-75
2023/07/09 01:59:42;;;;;;;9.30;6.67;;;;;;;18.60;75.38;101146.44;5042984;28;20234;-75
2023/07/09 02:02:08;;;;;;;10.83;6.37;;;;;;;18.63;75.44;101146.13;5050187;28;20218;-75
2023/07/09 02:04:35;;;;;;;9.33;6.97;;;;;;;18.63;75.23;101148.81;5044032;28;20583;-74
2023/07/09 02:07:01;;;;;;;8.10;6.27;;;;;;;18.63;75.27;101151.53;5046110;28;20660;-75
2023/07/09 02:09:29;;;;;;;9.53;7.00;;;;;;;18.60;75.66;101148.28;5049965;28;20213;-75
2023/07/09 02:11:56;;;;;;;9.23;6.67;;;;;;;18.59;75.11;101149.25;5040137;28;20233;-75
2023/07/09 02:14:22;;;;;;;8.90;6.77;;;;;;;18.53;75.63;101141.66;5046990;28;20223;-75
2023/07/09 02:16:49;;;;;;;8.33;6.50;;;;;;;18.50;75.99;101141.94;5044948;28;20289;-75
2023/07/09 02:19:15;;;;;;;9.87;6.97;;;;;;;18.46;76.41;101149.44;5044389;28;20722;-74
2023/07/09 02:21:42;;;;;;;9.77;6.93;;;;;;;18.46;76.91;101144.03;5047028;28;20226;-75
2023/07/09 02:24:08;;;;;;;10.33;6.90;;;;;;;18.46;76.93;101149.44;5040502;28;20251;-75
2023/07/09 02:26:36;;;;;;;10.93;7.47;;;;;;;18.41;76.34;101148.16;5049991;28;20208;-74
2023/07/09 02:29:03;;;;;;;9.10;6.87;;;;;;;18.33;76.67;101151.53;5046988;28;20214;-75
2023/07/09 02:31:30;;;;;;;9.30;6.90;;;;;;;18.26;77.13;101156.63;5043976;28;20484;-75
2023/07/09 02:33:56;;;;;;;8.17;7.37;;;;;;;18.21;77.18;101153.47;5044765;28;20229;-74
2023/07/09 02:36:23;;;;;;;12.33;7.00;;;;;;;18.18;76.75;101150.16;5047256;28;20310;-75
2023/07/09 02:38:49;;;;;;;8.00;6.87;;;;;;;18.09;76.52;101164.47;5044252;28;20238;-75
2023/07/09 02:41:16;;;;;;;12.87;6.93;;;;;;;18.00;77.02;101158.88;5045473;28;20218;-75
2023/07/09 02:43:44;;;;;;;9.33;6.80;;;;;;;17.95;77.76;101161.09;5045275;28;20238;-75
2023/07/09 02:46:10;;;;;;;7.73;6.63;;;;;;;17.93;78.22;101157.69;5043797;28;20206;-75
2023/07/09 02:48:37;;;;;;;10.33;6.90;;;;;;;17.91;78.12;101158.81;5044822;28;20212;-74
2023/07/09 02:51:04;;;;;;;11.50;7.87;;;;;;;17.83;77.84;101154.06;5047550;28;20232;-75
2023/07/09 02:53:30;;;;;;;10.47;6.97;;;;;;;17.77;78.12;101154.59;5049007;28;20230;-75
2023/07/09 02:55:57;;;;;;;8.40;6.87;;;;;;;17.71;78.99;101151.59;5040554;28;20279;-75
2023/07/09 02:58:23;;;;;;;8.67;7.77;;;;;;;17.68;79.74;101155.41;5036825;28;20216;-74
2023/07/09 03:00:52;;;;;;;9.23;7.17;;;;;;;17.67;80.17;101149.16;5043741;28;20207;-74
2023/07/09 03:03:19;;;;;;;8.30;7.40;;;;;;;17.65;80.50;101153.81;5046543;28;20230;-75
2023/07/09 03:05:46;;;;;;;11.77;7.47;;;;;;;17.67;80.72;101156.38;5044995;28;20290;-74
2023/07/09 03:08:12;;;;;;;14.20;7.37;;;;;;;17.68;81.05;101152.69;5047552;28;20674;-75
2023/07/09 03:10:39;;;;;;;8.37;7.00;;;;;;;17.69;81.05;101151.72;5046837;28;20565;-75
2023/07/09 03:13:05;;;;;;;8.53;6.67;;;;;;;17.69;80.70;101151.72;5048128;28;20242;-75
2023/07/09 03:15:32;;;;;;;13.93;6.93;;;;;;;17.65;80.11;101158.34;5046014;28;20215;-75
2023/07/09 03:18:00;;;;;;;16.63;6.43;;;;;;;17.60;79.05;101161.38;5048609;28;20206;-74
2023/07/09 03:20:27;;;;;;;22.30;6.73;;;;;;;17.53;78.05;101156.66;5047746;28;20674;-75
2023/07/09 03:22:53;;;;;;;12.47;6.43;;;;;;;17.46;78.24;101167.09;5048773;28;20238;-75
2023/07/09 03:25:20;;;;;;;11.67;6.10;;;;;;;17.44;78.66;101169.06;5046465;28;20222;-75
2023/07/09 03:27:48;;;;;;;10.20;6.60;;;;;;;17.43;79.15;101161.94;5047267;28;20210;-73
2023/07/09 03:30:15;;;;;;;13.17;6.90;;;;;;;17.45;78.79;101151.06;5042768;28;20687;-75
2023/07/09 03:32:41;;;;;;;18.07;6.37;;;;;;;17.42;78.79;101151.31;5048494;28;20240;-74
2023/07/09 03:35:09;;;;;;;14.67;6.23;;;;;;;17.39;78.23;101165.88;5044862;28;20217;-74
2023/07/09 03:37:37;;;;;;;11.33;6.73;;;;;;;17.34;77.59;101165.44;5044025;28;20213;-75
2023/07/09 03:40:05;;;;;;;9.57;6.37;;;;;;;17.23;77.54;101163.63;5046601;28;20722;-75
2023/07/09 03:42:31;;;;;;;11.17;7.50;;;;;;;17.17;79.24;101164.16;5048148;28;20248;-74
2023/07/09 03:44:58;;;;;;;9.43;7.40;;;;;;;17.16;80.60;101173.19;5037888;28;20234;-75
2023/07/09 03:47:24;;;;;;;7.70;6.87;;;;;;;17.18;81.77;101179.31;5046495;28;20205;-75
2023/07/09 03:49:51;;;;;;;8.87;8.07;;;;;;;17.21;82.12;101176.34;5045808;28;20220;-75
2023/07/09 03:52:19;;;;;;;12.13;7.67;;;;;;;17.24;82.18;101173.41;5048350;28;20233;-75
2023/07/09 03:54:45;;;;;;;13.73;7.17;;;;;;;17.20;81.73;101171.09;5042380;28;20209;-75
2023/07/09 03:57:12;;;;;;;16.30;6.47;;;;;;;17.17;82.01;101179.44;5047719;28;20219;-75
2023/07/09 03:59:39;;;;;;;9.23;6.67;;;;;;;17.16;82.55;101169.66;5042122;28;20216;-75
2023/07/09 04:02:07;;;;;;;9.53;6.77;;;;;;;17.17;82.71;101177.59;5047799;28;20216;-75
2023/07/09 04:04:33;;;;;;;10.17;7.33;;;;;;;17.19;82.59;101180.16;5043425;28;20697;-74
2023/07/09 04:07:00;;;;;;;12.17;6.80;;;;;;;17.19;82.84;101181.03;5044642;28;20580;-75
2023/07/09 04:09:28;;;;;;;9.83;6.53;;;;;;;17.20;82.97;101177.31;5045238;28;20202;-75
2023/07/09 04:11:54;;;;;;;10.13;6.57;;;;;;;17.23;83.24;101181.59;5047806;28;20232;-75
2023/07/09 04:14:21;;;;;;;9.37;7.23;;;;;;;17.28;83.61;101169.47;5042147;28;20229;-75
2023/07/09 04:16:47;;;;;;;7.57;6.90;;;;;;;17.33;83.57;101178.03;5044754;28;20210;-74
2023/07/09 04:19:14;;;;;;;12.50;7.60;;;;;;;17.34;83.44;101176.19;5040368;28;20209;-75
2023/07/09 04:21:40;;;;;;;12.73;6.70;;;;;;;17.34;82.99;101168.97;5043050;28;20218;-75
2023/07/09 04:24:07;;;;;;;10.43;7.60;;;;;;;17.30;83.29;101177.44;5044532;28;20228;-75
2023/07/09 04:26:39;;;;;;;9.60;7.50;;;;;;;17.26;83.64;101171.44;5047052;28;20213;-74
2023/07/09 04:29:06;;;;;;;15.23;8.00;;;;;;;17.25;84.56;101172.41;5035030;28;20220;-75
2023/07/09 04:31:33;;;;;;;9.10;8.17;;;;;;;17.25;85.26;101175.13;5047681;28;20236;-75
2023/07/09 04:33:59;;;;;;;10.50;8.60;;;;;;;17.28;85.71;101174.88;5046965;28;20316;-75
2023/07/09 04:36:26;;;;;;;9.93;8.30;;;;;;;17.33;86.33;101172.66;5042186;28;20206;-75
2023/07/09 04:38:53;;;;;;;9.97;8.30;;;;;;;17.39;86.34;101175.78;5044598;28;20213;-75
2023/07/09 04:41:19;;;;;;;7.80;7.07;;;;;;;17.44;86.72;101176.28;5047635;28;20296;-75
2023/07/09 04:43:47;;;;;;;8.37;7.43;;;;;;;17.49;86.23;101174.06;5040976;28;20228;-75
2023/07/09 04:46:14;;;;;;;9.40;7.33;;;;;;;17.51;86.06;101178.34;5042247;28;20210;-75
2023/07/09 04:48:40;;;;;;;9.90;7.90;;;;;;;17.59;86.53;101183.91;5045626;28;20307;-75
2023/07/09 04:51:07;;;;;;;8.10;7.30;;;;;;;17.65;86.62;101179.88;5045352;28;20308;-75
2023/07/09 04:53:34;;;;;;;9.43;7.90;;;;;;;17.69;86.31;101179.50;5047736;28;20317;-74
2023/07/09 04:56:02;;;;;;;8.97;7.70;;;;;;;17.74;85.99;101179.09;5041367;28;20213;-74
2023/07/09 04:58:28;;;;;;;8.67;7.43;;;;;;;17.79;85.84;101184.97;5044284;28;20725;-75
2023/07/09 05:00:59;;;;;;;10.43;7.60;;;;;;;17.86;85.82;101182.59;5044885;28;20689;-75
2023/07/09 05:03:26;;;;;;;10.37;7.97;;;;;;;17.93;85.66;101179.22;5045962;28;20235;-75
2023/07/09 05:05:52;;;;;;;10.07;7.73;;;;;;;18.00;85.69;101183.13;5047126;28;20215;-75
2023/07/09 05:08:19;;;;;;;9.80;8.53;;;;;;;18.09;85.15;101180.63;5045882;28;20213;-75
2023/07/09 05:10:47;;;;;;;12.83;8.53;;;;;;;18.14;84.87;101187.31;5041646;28;20219;-75
2023/07/09 05:13:14;;;;;;;9.30;8.47;;;;;;;18.19;85.14;101179.69;5043066;28;20274;-75
2023/07/09 05:15:41;;;;;;;9.60;7.63;;;;;;;18.28;85.35;101180.72;5041248;28;20219;-75
2023/07/09 05:18:09;;;;;;;9.33;8.43;;;;;;;18.36;85.72;101183.63;5045304;28;20286;-75
2023/07/09 05:20:36;;;;;;;10.30;8.87;;;;;;;18.43;86.18;101179.41;5039008;28;20216;-75
2023/07/09 05:23:03;;;;;;;9.20;8.40;;;;;;;18.50;86.37;101175.16;5045388;28;20323;-75
2023/07/09 05:25:29;;;;;;;10.97;8.97;;;;;;;18.59;86.65;101184.34;5042005;28;20200;-74
2023/07/09 05:27:56;;;;;;;9.10;8.20;;;;;;;18.67;86.47;101181.78;5045468;28;20587;-75
2023/07/09 05:30:23;;;;;;;8.50;7.80;;;;;;;18.76;86.58;101190.94;5041728;28;20203;-75
2023/07/09 05:32:50;;;;;;;10.60;8.30;;;;;;;18.84;86.06;101191.06;5046662;28;20246;-74
2023/07/09 05:35:18;;;;;;;9.07;8.17;;;;;;;18.91;86.01;101184.16;5044344;28;20287;-75
2023/07/09 05:37:44;;;;;;;11.80;8.00;;;;;;;19.02;85.95;101186.72;5045917;28;20232;-75
2023/07/09 05:40:11;;;;;;;8.97;7.73;;;;;;;19.10;85.58;101184.19;5042917;28;20224;-75
2023/07/09 05:42:38;;;;;;;8.80;7.90;;;;;;;19.21;85.17;101194.00;5040591;28;20236;-75
2023/07/09 05:45:05;;;;;;;8.83;8.00;;;;;;;19.32;85.18;101191.19;5044110;28;20211;-75
2023/07/09 05:47:32;;;;;;;8.97;7.53;;;;;;;19.42;84.52;101187.50;5038539;28;20210;-75
2023/07/09 05:49:59;;;;;;;10.13;7.80;;;;;;;19.54;83.41;101195.50;5042453;28;20208;-75
2023/07/09 05:52:28;;;;;;;8.20;7.40;;;;;;;19.64;82.16;101197.22;5038388;28;20260;-75
2023/07/09 05:54:55;;;;;;;9.13;7.60;;;;;;;19.74;80.77;101189.94;5045326;28;20212;-75
2023/07/09 05:57:22;;;;;;;8.83;7.13;;;;;;;19.84;79.49;101187.25;5045267;28;20217;-75
2023/07/09 05:59:48;;;;;;;11.27;7.43;;;;;;;19.95;79.19;101187.09;5046371;28;20300;-75
2023/07/09 06:02:17;;;;;;;10.63;6.90;;;;;;;20.11;78.79;101194.59;5044048;28;20214;-75
2023/07/09 06:04:45;;;;;;;8.40;6.83;;;;;;;20.29;78.41;101195.56;5041986;28;20239;-75
2023/07/09 06:07:13;;;;;;;8.97;6.33;;;;;;;20.46;77.56;101193.97;5046884;28;20597;-75
2023/07/09 06:09:41;;;;;;;7.10;6.40;;;;;;;20.62;75.95;101199.59;5043547;28;20224;-75
2023/07/09 06:12:09;;;;;;;7.37;6.63;;;;;;;20.77;74.18;101194.56;5044696;28;20246;-75
2023/07/09 06:14:36;;;;;;;10.57;7.23;;;;;;;20.92;73.09;101205.75;5040178;28;20576;-74
2023/07/09 06:17:02;;;;;;;7.27;6.47;;;;;;;21.03;72.72;101203.69;5036289;28;20588;-75
2023/07/09 06:19:29;;;;;;;9.00;6.57;;;;;;;21.18;71.79;101198.59;5038529;28;20212;-75
2023/07/09 06:21:56;;;;;;;6.97;6.35;;;;;;;21.32;71.44;101195.41;5044739;28;20237;-76
2023/07/09 06:24:23;;;;;;;9.63;6.47;;;;;;;21.47;70.25;101193.88;5044107;28;20223;-76
2023/07/09 06:26:51;;;;;;;9.18;6.10;;;;;;;21.62;69.96;101196.03;5046774;28;20589;-76
2023/07/09 06:29:18;;;;;;;6.63;6.00;;;;;;;21.78;70.34;101194.31;5046138;28;20213;-76
2023/07/09 06:31:44;;;;;;;6.93;5.68;;;;;;;21.98;69.94;101191.44;5047617;28;20397;-76
2023/07/09 06:34:11;;;;;;;7.30;5.93;;;;;;;22.16;69.27;101193.13;5047484;28;20233;-76
2023/07/09 06:36:37;;;;;;;6.72;6.07;;;;;;;22.35;69.50;101200.22;5044504;28;20211;-76
2023/07/09 06:39:05;;;;;;;7.60;5.93;;;;;;;22.56;69.42;101190.84;5041903;28;20206;-76
2023/07/09 06:41:32;;;;;;;8.27;5.75;;;;;;;22.73;68.64;101198.06;5049995;28;20217;-75
2023/07/09 06:44:00;;;;;;;7.80;5.70;;;;;;;22.87;67.29;101193.88;5047184;28;20231;-76
2023/07/09 06:46:26;;;;;;;6.10;5.50;;;;;;;22.97;66.24;101200.03;5048091;28;20197;-76
2023/07/09 06:48:53;;;;;;;6.18;5.57;;;;;;;23.08;65.44;101202.47;5046059;28;20485;-76
2023/07/09 06:51:20;;;;;;;5.93;5.43;;;;;;;23.17;65.24;101202.31;5046847;28;20688;-76
2023/07/09 06:53:50;;;;;;;6.28;5.68;;;;;;;23.32;65.53;101196.22;5037414;28;20323;-75
2023/07/09 06:56:16;;;;;;;7.65;5.80;;;;;;;23.48;64.70;101201.69;5041386;28;20623;-76
2023/07/09 06:58:44;;;;;;;5.35;4.85;;;;;;;23.62;64.74;101192.06;5043015;28;20256;-75
2023/07/09 07:01:12;;;;;;;7.35;5.07;;;;;;;23.78;64.31;101197.53;5042668;28;20205;-75
2023/07/09 07:03:38;;;;;;;6.65;5.32;;;;;;;23.94;63.68;101194.81;5041769;28;20284;-75
2023/07/09 07:06:06;;;;;;;7.68;5.22;;;;;;;24.11;62.29;101199.22;5043270;28;20209;-75
2023/07/09 07:08:33;;;;;;;6.15;4.68;;;;;;;24.27;61.62;101195.66;5044017;28;20672;-75
2023/07/09 07:11:02;;;;;;;8.18;5.40;;;;;;;24.40;60.38;101195.94;5048357;28;20213;-75
2023/07/09 07:13:29;;;;;;;5.60;4.97;;;;;;;24.51;59.23;101192.88;5044543;28;20225;-75
2023/07/09 07:15:55;;;;;;;6.28;5.03;;;;;;;24.65;59.51;101193.16;5037582;28;20202;-75
2023/07/09 07:18:24;;;;;;;5.20;4.80;;;;;;;24.80;58.63;101185.94;5041402;28;20208;-75
2023/07/09 07:20:51;;;;;;;5.90;5.20;;;;;;;24.93;57.16;101191.69;5039596;28;20833;-75
2023/07/09 07:23:18;;;;;;;9.60;5.10;;;;;;;25.01;56.74;101191.69;5047087;28;20233;-75
2023/07/09 07:25:45;;;;;;;6.03;5.15;;;;;;;25.15;57.32;101190.06;5045743;28;20205;-76
2023/07/09 07:28:12;;;;;;;5.88;4.82;;;;;;;25.29;56.55;101193.91;5038584;28;20700;-76
2023/07/09 07:30:39;;;;;;;5.63;4.63;;;;;;;25.44;56.43;101190.22;5045846;28;20201;-76
2023/07/09 07:33:05;;;;;;;5.15;4.22;;;;;;;25.60;55.97;101197.47;5042288;28;20248;-76
2023/07/09 07:35:33;;;;;;;6.10;5.25;;;;;;;25.75;55.72;101203.84;5040170;28;20210;-76
2023/07/09 07:38:00;;;;;;;4.90;4.40;;;;;;;25.89;55.28;101204.94;5039113;28;20201;-76
2023/07/09 07:40:26;;;;;;;5.20;4.68;;;;;;;26.07;56.02;101191.81;5044548;28;20288;-75
2023/07/09 07:42:53;;;;;;;5.22;4.72;;;;;;;26.23;55.92;101190.78;5041400;28;20715;-76
2023/07/09 07:45:19;;;;;;;5.18;4.68;;;;;;;26.41;55.72;101187.75;5046909;28;20213;-75
2023/07/09 07:47:46;;;;;;;5.45;4.93;;;;;;;26.55;54.68;101187.75;5042447;28;20209;-75
2023/07/09 07:50:13;;;;;;;5.75;5.22;;;;;;;26.68;54.19;101184.38;5044648;28;20295;-76
2023/07/09 07:52:41;;;;;;;6.80;4.80;;;;;;;26.82;54.20;101191.69;5041260;28;20344;-75
2023/07/09 07:55:08;;;;;;;5.88;5.38;;;;;;;26.93;53.35;101183.00;5045690;28;20481;-75
2023/07/09 07:57:35;;;;;;;6.65;4.47;;;;;;;27.05;52.86;101188.03;5042805;28;20292;-75
2023/07/09 08:00:04;;;;;;;4.78;4.38;;;;;;;27.16;52.67;101182.06;5042113;28;20202;-75
2023/07/09 08:02:38;;;;;;;5.30;4.63;;;;;;;27.26;52.13;101183.44;5036290;28;20229;-74
2023/07/09 08:05:06;;;;;;;5.65;4.63;;;;;;;27.38;51.83;101186.53;5040292;28;20208;-75
2023/07/09 08:07:32;;;;;;;4.95;4.55;;;;;;;27.48;51.58;101181.56;5042772;28;20205;-76
2023/07/09 08:10:00;;;;;;;4.45;4.07;;;;;;;27.60;51.27;101180.03;5041799;28;20220;-75
2023/07/09 08:12:27;;;;;;;5.18;4.68;;;;;;;27.72;50.42;101185.84;5045493;28;20233;-76
2023/07/09 08:14:54;;;;;;;5.57;5.07;;;;;;;27.83;49.62;101187.19;5041280;28;20214;-75
2023/07/09 08:17:20;;;;;;;5.07;4.47;;;;;;;27.96;49.06;101185.41;5043489;28;20306;-76
2023/07/09 08:19:48;;;;;;;5.13;4.63;;;;;;;28.05;48.14;101177.91;5039114;28;20217;-76
2023/07/09 08:22:16;;;;;;;5.82;5.22;;;;;;;28.15;47.85;101185.78;5043173;28;20206;-75
2023/07/09 08:24:43;;;;;;;5.10;4.63;;;;;;;28.23;47.58;101180.19;5047276;28;20284;-76
2023/07/09 08:27:11;;;;;;;5.30;4.80;;;;;;;28.37;47.63;101175.66;5044156;28;20201;-76
2023/07/09 08:29:37;;;;;;;5.15;4.38;;;;;;;28.48;47.44;101169.63;5043785;28;20202;-76
2023/07/09 08:32:05;;;;;;;5.88;4.47;;;;;;;28.62;47.72;101171.38;5044758;28;20229;-75
2023/07/09 08:34:31;;;;;;;5.15;4.65;;;;;;;28.74;47.34;101172.50;5042162;28;20239;-76
2023/07/09 08:36:58;;;;;;;4.95;4.47;;;;;;;28.89;47.69;101164.16;5044649;28;20215;-75
2023/07/09 08:39:25;;;;;;;5.43;4.45;;;;;;;29.02;46.81;101158.75;5037352;28;20695;-76
2023/07/09 08:41:55;;;;;;;4.72;4.32;;;;;;;29.13;46.07;101163.63;5042802;28;20208;-76
2023/07/09 08:44:42;;;;;;;5.85;4.38;;;;;;;29.30;45.48;101164.94;5045095;28;20229;-75
2023/07/09 08:47:17;;;;;;;4.63;4.10;;;;;;;29.45;46.08;101169.44;5042166;28;20323;-76
2023/07/09 08:49:49;;;;;;;5.70;5.07;;;;;;;29.58;45.34;101167.53;5038170;28;20872;-76
2023/07/09 08:52:22;;;;;;;5.80;5.15;;;;;;;29.71;45.02;101164.00;5044148;28;20210;-76
2023/07/09 08:54:51;;;;;;;5.25;4.40;;;;;;;29.83;44.63;101172.44;5038729;28;20714;-76
2023/07/09 08:57:23;;;;;;;5.05;4.63;;;;;;;29.90;44.48;101163.16;5042609;28;20217;-76
2023/07/09 08:59:53;;;;;;;4.93;4.53;;;;;;;30.01;44.11;101158.94;5042832;28;20209;-76
2023/07/09 09:02:36;;;;;;;4.53;4.13;;;;;;;30.12;44.06;101161.03;5027605;28;20274;-76
2023/07/09 09:05:04;;;;;;;5.07;4.57;;;;;;;30.23;43.81;101156.81;5040463;28;20296;-76
2023/07/09 09:07:41;;;;;;;5.32;4.85;;;;;;;30.32;43.52;101156.34;5041803;28;20672;-76
2023/07/09 09:10:14;;;;;;;5.57;4.78;;;;;;;30.45;43.88;101157.41;5039508;28;20218;-76
2023/07/09 09:12:50;;;;;;;6.88;4.65;;;;;;;30.52;43.70;101161.81;5039713;28;20234;-76
2023/07/09 09:15:21;;;;;;;5.75;4.80;;;;;;;30.62;43.79;101167.75;5046305;28;20657;-76
2023/07/09 09:17:51;;;;;;;5.28;4.88;;;;;;;30.70;43.68;101150.16;5036258;28;20215;-76
2023/07/09 09:20:22;;;;;;;5.93;4.82;;;;;;;30.74;43.67;101159.66;5040808;28;20320;-76
2023/07/09 09:22:53;;;;;;;4.72;4.32;;;;;;;30.83;43.13;101163.00;5032878;28;20871;-76
2023/07/09 09:25:28;;;;;;;5.38;4.93;;;;;;;30.88;42.83;101150.28;5039869;28;20289;-76
2023/07/09 09:27:54;;;;;;;4.97;4.57;;;;;;;30.95;43.16;101150.28;5034341;28;20750;-75
2023/07/09 09:30:24;;;;;;;6.07;5.45;;;;;;;31.04;43.10;101147.03;5037498;28;20204;-75
2023/07/09 09:32:55;;;;;;;5.43;4.93;;;;;;;31.10;43.01;101148.09;5035133;28;20620;-76
2023/07/09 09:35:27;;;;;;;5.28;4.88;;;;;;;31.17;42.85;101142.59;5042716;28;20248;-75
2023/07/09 09:37:56;;;;;;;5.75;5.25;;;;;;;31.19;42.39;101149.53;5033557;28;20213;-74
2023/07/09 09:40:24;;;;;;;5.40;4.95;;;;;;;31.22;42.17;101143.59;5043541;28;20224;-76
2023/07/09 09:42:53;;;;;;;6.10;5.38;;;;;;;31.26;42.32;101152.25;5040552;28;20744;-74
2023/07/09 09:45:29;;;;;;;5.32;4.82;;;;;;;31.26;41.52;101147.59;5037299;28;20608;-76
2023/07/09 09:48:00;;;;;;;5.70;5.18;;;;;;;31.29;41.25;101158.16;5041937;28;20216;-75
2023/07/09 09:50:31;;;;;;;5.22;4.82;;;;;;;31.35;41.58;101156.44;5039067;28;20294;-75
2023/07/09 09:52:59;;;;;;;5.07;4.63;;;;;;;31.44;41.59;101157.00;5044023;28;20307;-76
2023/07/09 09:55:29;;;;;;;5.65;5.05;;;;;;;31.51;40.46;101158.66;5048318;28;20215;-76
2023/07/09 09:57:57;;;;;;;6.38;4.65;;;;;;;31.61;40.06;101160.91;5042901;28;20589;-75
2023/07/09 10:00:26;;;;;;;5.00;4.60;;;;;;;31.68;39.33;101162.59;5043978;28;20684;-76
2023/07/09 10:03:00;;;;;;;5.18;4.68;;;;;;;31.72;39.55;101163.81;5047061;28;20244;-76
2023/07/09 10:05:32;;;;;;;5.30;4.75;;;;;;;31.80;39.55;101164.63;5046023;28;20216;-76
2023/07/09 10:08:04;;;;;;;5.20;4.80;;;;;;;31.85;39.15;101164.78;5043514;28;20703;-75
2023/07/09 10:10:33;;;;;;;5.35;4.32;;;;;;;31.93;39.13;101165.34;5041680;28;20202;-76
2023/07/09 10:13:06;;;;;;;5.32;4.82;;;;;;;31.96;38.02;101159.38;5042554;28;20233;-76
2023/07/09 10:15:41;;;;;;;5.80;5.30;;;;;;;32.08;38.63;101162.25;5044453;28;20216;-76
2023/07/09 10:18:28;;;;;;;5.68;5.10;;;;;;;32.14;38.75;101157.75;5041216;28;20201;-76
2023/07/09 10:21:06;;;;;;;5.40;4.80;;;;;;;32.19;37.69;101150.50;5047744;28;20815;-75
2023/07/09 10:23:39;;;;;;;5.30;4.80;;;;;;;32.28;38.03;101153.81;5030352;28;20245;-75
2023/07/09 10:26:14;;;;;;;5.57;5.07;;;;;;;32.40;38.16;101155.59;5031426;28;20205;-76
2023/07/09 10:29:08;;;;;;;7.05;5.40;;;;;;;32.52;37.48;101149.31;5040030;28;20356;-75
2023/07/09 10:31:43;;;;;;;5.30;4.75;;;;;;;32.53;36.19;101151.84;5038730;28;20288;-76
2023/07/09 10:34:22;;;;;;;5.47;4.97;;;;;;;32.54;35.31;101147.19;5047869;28;20258;-75
2023/07/09 10:37:09;;;;;;;5.00;4.28;;;;;;;32.59;35.03;101155.63;5041753;28;20229;-76
2023/07/09 10:39:40;;;;;;;4.68;4.28;;;;;;;32.68;35.60;101151.47;5038759;28;20604;-75
2023/07/09 10:42:18;;;;;;;4.88;4.47;;;;;;;32.76;34.81;101143.78;5045465;28;20241;-76
2023/07/09 10:44:52;;;;;;;5.47;4.47;;;;;;;32.84;35.27;101145.34;5042904;28;20482;-76
2023/07/09 10:47:28;;;;;;;5.13;4.63;;;;;;;32.95;35.55;101141.00;5040509;28;20209;-76
2023/07/09 10:49:59;;;;;;;6.72;4.70;;;;;;;33.04;35.97;101140.41;5042986;28;20220;-75
2023/07/09 10:52:30;;;;;;;5.07;4.55;;;;;;;33.16;35.99;101140.47;5042040;28;20225;-75
2023/07/09 10:55:03;;;;;;;4.88;4.47;;;;;;;33.19;35.34;101140.00;5042433;28;20707;-75
2023/07/09 10:57:36;;;;;;;5.32;4.82;;;;;;;33.24;35.07;101136.53;5047177;28;20582;-76
2023/07/09 11:00:04;;;;;;;5.82;5.00;;;;;;;33.25;35.12;101141.84;5045069;28;20210;-75
2023/07/09 11:02:33;;;;;;;5.78;4.60;;;;;;;33.28;35.11;101130.34;5043464;28;20312;-75
2023/07/09 11:05:03;;;;;;;5.10;4.60;;;;;;;33.32;35.02;101131.53;5043399;28;20308;-76
2023/07/09 11:07:34;;;;;;;5.55;4.80;;;;;;;33.35;34.92;101131.06;5040890;28;20593;-76
2023/07/09 11:10:05;;;;;;;4.80;4.40;;;;;;;33.35;34.35;101130.22;5044281;28;20233;-76
2023/07/09 11:12:35;;;;;;;4.35;4.05;;;;;;;33.39;34.32;101135.06;5044400;28;20587;-76
2023/07/09 11:15:08;;;;;;;6.43;4.75;;;;;;;33.43;33.79;101129.91;5043114;28;20232;-75
2023/07/09 11:17:37;;;;;;;5.07;4.35;;;;;;;33.49;34.41;101120.69;5046805;28;20220;-76
2023/07/09 11:20:19;;;;;;;5.60;4.63;;;;;;;33.60;34.97;101130.06;5042449;28;20205;-76
2023/07/09 11:22:53;;;;;;;4.88;4.07;;;;;;;33.69;35.25;101129.47;5045445;28;20229;-76
2023/07/09 11:25:29;;;;;;;4.75;4.35;;;;;;;33.78;35.86;101124.47;5044062;28;20205;-76
2023/07/09 11:28:05;;;;;;;4.70;4.18;;;;;;;33.81;35.16;101121.25;5043730;28;20232;-75
2023/07/09 11:30:32;;;;;;;4.97;4.57;;;;;;;33.79;33.64;101121.47;5041418;28;20213;-76
2023/07/09 11:33:01;;;;;;;4.53;4.13;;;;;;;33.78;33.12;101124.47;5039949;28;20297;-75